sensor_id;sensor_type;location;lat;lon;timestamp;pressure;altitude;pressure_sealevel;temperature;humidity
64853;BME280;56050;55.558;-4.644;2022-08-14T00:01:21;101298.63;;;20.92;56.49
64853;BME280;56050;55.558;-4.644;2022-08-14T00:03:46;101302.38;;;20.85;56.61
64853;BME280;56050;55.558;-4.644;2022-08-14T00:06:11;101300.66;;;20.79;56.84
64853;BME280;56050;55.558;-4.644;2022-08-14T00:08:37;101303.94;;;20.74;56.81
64853;BME280;56050;55.558;-4.644;2022-08-14T00:11:02;101298.25;;;20.68;56.98
64853;BME280;56050;55.558;-4.644;2022-08-14T00:13:28;101293.78;;;20.62;57.06
64853;BME280;56050;55.558;-4.644;2022-08-14T00:15:56;101293.09;;;20.58;57.13
64853;BME280;56050;55.558;-4.644;2022-08-14T00:18:24;101289.28;;;20.55;57.05
64853;BME280;56050;55.558;-4.644;2022-08-14T00:20:50;101287.88;;;20.50;57.29
64853;BME280;56050;55.558;-4.644;2022-08-14T00:23:17;101284.06;;;20.48;57.24
64853;BME280;56050;55.558;-4.644;2022-08-14T00:25:49;101282.28;;;20.41;57.63
64853;BME280;56050;55.558;-4.644;2022-08-14T00:28:15;101280.44;;;20.38;57.53
64853;BME280;56050;55.558;-4.644;2022-08-14T00:30:41;101282.97;;;20.33;57.35
64853;BME280;56050;55.558;-4.644;2022-08-14T00:33:07;101277.72;;;20.26;57.90
64853;BME280;56050;55.558;-4.644;2022-08-14T00:35:32;101277.03;;;20.22;57.79
64853;BME280;56050;55.558;-4.644;2022-08-14T00:37:58;101278.81;;;20.16;58.08
64853;BME280;56050;55.558;-4.644;2022-08-14T00:40:24;101281.63;;;20.12;58.20
64853;BME280;56050;55.558;-4.644;2022-08-14T00:42:50;101277.50;;;20.08;58.38
64853;BME280;56050;55.558;-4.644;2022-08-14T00:45:16;101270.16;;;20.05;58.30
64853;BME280;56050;55.558;-4.644;2022-08-14T00:47:45;101266.31;;;20.02;58.10
64853;BME280;56050;55.558;-4.644;2022-08-14T00:50:13;101267.94;;;20.00;58.47
64853;BME280;56050;55.558;-4.644;2022-08-14T00:52:40;101269.94;;;19.99;58.26
64853;BME280;56050;55.558;-4.644;2022-08-14T00:55:06;101263.69;;;19.99;58.48
64853;BME280;56050;55.558;-4.644;2022-08-14T00:57:34;101256.69;;;19.98;58.52
64853;BME280;56050;55.558;-4.644;2022-08-14T01:00:00;101257.56;;;19.94;58.36
64853;BME280;56050;55.558;-4.644;2022-08-14T01:02:27;101254.81;;;19.94;58.27
64853;BME280;56050;55.558;-4.644;2022-08-14T01:04:57;101253.63;;;19.96;58.58
64853;BME280;56050;55.558;-4.644;2022-08-14T01:07:25;101244.75;;;19.91;58.31
64853;BME280;56050;55.558;-4.644;2022-08-14T01:09:58;101250.34;;;19.88;58.43
64853;BME280;56050;55.558;-4.644;2022-08-14T01:12:29;101249.56;;;19.87;58.36
64853;BME280;56050;55.558;-4.644;2022-08-14T01:14:58;101248.91;;;19.83;58.63
64853;BME280;56050;55.558;-4.644;2022-08-14T01:17:25;101245.41;;;19.83;58.57
64853;BME280;56050;55.558;-4.644;2022-08-14T01:20:14;101250.44;;;19.84;58.63
64853;BME280;56050;55.558;-4.644;2022-08-14T01:22:58;101253.28;;;19.81;58.72
64853;BME280;56050;55.558;-4.644;2022-08-14T01:25:24;101253.38;;;19.77;58.79
64853;BME280;56050;55.558;-4.644;2022-08-14T01:27:49;101253.50;;;19.74;59.08
64853;BME280;56050;55.558;-4.644;2022-08-14T01:30:15;101252.06;;;19.69;59.17
64853;BME280;56050;55.558;-4.644;2022-08-14T01:32:41;101244.50;;;19.61;59.11
64853;BME280;56050;55.558;-4.644;2022-08-14T01:35:07;101238.06;;;19.55;59.60
64853;BME280;56050;55.558;-4.644;2022-08-14T01:37:33;101235.41;;;19.51;59.63
64853;BME280;56050;55.558;-4.644;2022-08-14T01:39:58;101236.28;;;19.48;59.57
64853;BME280;56050;55.558;-4.644;2022-08-14T01:42:25;101229.81;;;19.42;59.97
64853;BME280;56050;55.558;-4.644;2022-08-14T01:44:53;101229.56;;;19.36;60.11
64853;BME280;56050;55.558;-4.644;2022-08-14T01:47:19;101222.34;;;19.30;59.96
64853;BME280;56050;55.558;-4.644;2022-08-14T01:49:45;101226.03;;;19.23;60.22
64853;BME280;56050;55.558;-4.644;2022-08-14T01:52:11;101221.53;;;19.17;60.22
64853;BME280;56050;55.558;-4.644;2022-08-14T01:54:37;101222.50;;;19.10;60.81
64853;BME280;56050;55.558;-4.644;2022-08-14T01:57:02;101217.66;;;19.02;61.01
64853;BME280;56050;55.558;-4.644;2022-08-14T01:59:30;101215.09;;;18.95;61.34
64853;BME280;56050;55.558;-4.644;2022-08-14T02:02:04;101219.22;;;18.87;61.87
64853;BME280;56050;55.558;-4.644;2022-08-14T02:04:36;101211.25;;;18.80;61.60
64853;BME280;56050;55.558;-4.644;2022-08-14T02:07:04;101209.44;;;18.73;61.99
64853;BME280;56050;55.558;-4.644;2022-08-14T02:09:31;101203.41;;;18.65;62.34
64853;BME280;56050;55.558;-4.644;2022-08-14T02:12:04;101202.72;;;18.61;62.40
64853;BME280;56050;55.558;-4.644;2022-08-14T02:14:30;101200.44;;;18.60;62.49
64853;BME280;56050;55.558;-4.644;2022-08-14T02:16:55;101197.38;;;18.58;62.25
64853;BME280;56050;55.558;-4.644;2022-08-14T02:19:24;101194.22;;;18.59;62.40
64853;BME280;56050;55.558;-4.644;2022-08-14T02:21:53;101193.78;;;18.61;62.22
64853;BME280;56050;55.558;-4.644;2022-08-14T02:24:21;101189.84;;;18.62;62.52
64853;BME280;56050;55.558;-4.644;2022-08-14T02:26:48;101186.34;;;18.61;62.27
64853;BME280;56050;55.558;-4.644;2022-08-14T02:29:18;101185.63;;;18.61;62.43
64853;BME280;56050;55.558;-4.644;2022-08-14T02:31:48;101191.06;;;18.61;62.54
64853;BME280;56050;55.558;-4.644;2022-08-14T02:34:34;101196.94;;;18.59;62.60
64853;BME280;56050;55.558;-4.644;2022-08-14T02:37:09;101190.28;;;18.60;62.62
64853;BME280;56050;55.558;-4.644;2022-08-14T02:39:40;101187.56;;;18.60;62.54
64853;BME280;56050;55.558;-4.644;2022-08-14T02:42:09;101195.44;;;18.58;62.64
64853;BME280;56050;55.558;-4.644;2022-08-14T02:44:36;101181.09;;;18.54;62.63
64853;BME280;56050;55.558;-4.644;2022-08-14T02:47:04;101176.94;;;18.50;63.02
64853;BME280;56050;55.558;-4.644;2022-08-14T02:49:29;101181.75;;;18.42;63.29
64853;BME280;56050;55.558;-4.644;2022-08-14T02:51:56;101178.88;;;18.33;63.52
64853;BME280;56050;55.558;-4.644;2022-08-14T02:54:22;101174.69;;;18.29;63.89
64853;BME280;56050;55.558;-4.644;2022-08-14T02:56:48;101175.97;;;18.24;63.88
64853;BME280;56050;55.558;-4.644;2022-08-14T02:59:15;101171.72;;;18.23;63.82
64853;BME280;56050;55.558;-4.644;2022-08-14T03:01:41;101163.53;;;18.23;64.09
64853;BME280;56050;55.558;-4.644;2022-08-14T03:04:07;101168.13;;;18.26;63.62
64853;BME280;56050;55.558;-4.644;2022-08-14T03:06:35;101166.50;;;18.29;63.92
64853;BME280;56050;55.558;-4.644;2022-08-14T03:09:00;101173.94;;;18.28;63.93
64853;BME280;56050;55.558;-4.644;2022-08-14T03:11:26;101171.97;;;18.29;63.75
64853;BME280;56050;55.558;-4.644;2022-08-14T03:13:52;101170.00;;;18.29;63.92
64853;BME280;56050;55.558;-4.644;2022-08-14T03:16:23;101170.88;;;18.26;64.33
64853;BME280;56050;55.558;-4.644;2022-08-14T03:18:51;101166.25;;;18.23;64.31
64853;BME280;56050;55.558;-4.644;2022-08-14T03:21:24;101165.16;;;18.20;64.56
64853;BME280;56050;55.558;-4.644;2022-08-14T03:23:51;101171.19;;;18.12;64.94
64853;BME280;56050;55.558;-4.644;2022-08-14T03:26:25;101174.13;;;18.05;65.05
64853;BME280;56050;55.558;-4.644;2022-08-14T03:28:53;101176.16;;;18.01;65.23
64853;BME280;56050;55.558;-4.644;2022-08-14T03:31:19;101171.53;;;17.98;65.30
64853;BME280;56050;55.558;-4.644;2022-08-14T03:33:47;101164.66;;;17.93;65.66
64853;BME280;56050;55.558;-4.644;2022-08-14T03:36:14;101171.72;;;17.91;65.53
64853;BME280;56050;55.558;-4.644;2022-08-14T03:38:44;101171.38;;;17.89;65.30
64853;BME280;56050;55.558;-4.644;2022-08-14T03:41:14;101167.13;;;17.88;65.49
64853;BME280;56050;55.558;-4.644;2022-08-14T03:43:44;101157.75;;;17.89;65.47
64853;BME280;56050;55.558;-4.644;2022-08-14T03:46:11;101167.44;;;17.90;65.40
64853;BME280;56050;55.558;-4.644;2022-08-14T03:48:39;101165.09;;;17.92;65.37
64853;BME280;56050;55.558;-4.644;2022-08-14T03:51:06;101151.47;;;17.92;65.08
64853;BME280;56050;55.558;-4.644;2022-08-14T03:53:44;101157.25;;;17.94;65.18
64853;BME280;56050;55.558;-4.644;2022-08-14T03:56:12;101153.34;;;17.95;65.02
64853;BME280;56050;55.558;-4.644;2022-08-14T03:58:49;101155.19;;;17.98;64.86
64853;BME280;56050;55.558;-4.644;2022-08-14T04:01:17;101141.47;;;18.01;64.95
64853;BME280;56050;55.558;-4.644;2022-08-14T04:03:45;101139.84;;;18.04;64.89
64853;BME280;56050;55.558;-4.644;2022-08-14T04:06:10;101137.81;;;18.08;64.44
64853;BME280;56050;55.558;-4.644;2022-08-14T04:08:37;101133.03;;;18.12;64.62
64853;BME280;56050;55.558;-4.644;2022-08-14T04:11:04;101139.19;;;18.16;64.77
64853;BME280;56050;55.558;-4.644;2022-08-14T04:13:32;101138.00;;;18.17;64.68
64853;BME280;56050;55.558;-4.644;2022-08-14T04:15:59;101135.25;;;18.17;64.73
64853;BME280;56050;55.558;-4.644;2022-08-14T04:18:24;101133.72;;;18.16;64.54
64853;BME280;56050;55.558;-4.644;2022-08-14T04:20:50;101130.91;;;18.19;64.73
64853;BME280;56050;55.558;-4.644;2022-08-14T04:23:15;101124.69;;;18.19;64.68
64853;BME280;56050;55.558;-4.644;2022-08-14T04:25:41;101125.88;;;18.18;64.87
64853;BME280;56050;55.558;-4.644;2022-08-14T04:28:10;101122.03;;;18.15;64.75
64853;BME280;56050;55.558;-4.644;2022-08-14T04:30:36;101122.03;;;18.15;64.69
64853;BME280;56050;55.558;-4.644;2022-08-14T04:33:06;101127.50;;;18.15;64.90
64853;BME280;56050;55.558;-4.644;2022-08-14T04:35:35;101120.94;;;18.13;65.10
64853;BME280;56050;55.558;-4.644;2022-08-14T04:38:08;101122.22;;;18.08;65.04
64853;BME280;56050;55.558;-4.644;2022-08-14T04:40:54;101106.28;;;18.07;64.87
64853;BME280;56050;55.558;-4.644;2022-08-14T04:43:38;101107.81;;;18.08;65.03
64853;BME280;56050;55.558;-4.644;2022-08-14T04:46:07;101107.06;;;18.07;65.10
64853;BME280;56050;55.558;-4.644;2022-08-14T04:48:32;101110.97;;;18.06;64.85
64853;BME280;56050;55.558;-4.644;2022-08-14T04:50:58;101100.50;;;18.05;65.15
64853;BME280;56050;55.558;-4.644;2022-08-14T04:53:27;101099.72;;;18.04;65.25
64853;BME280;56050;55.558;-4.644;2022-08-14T04:55:55;101103.22;;;18.05;65.16
64853;BME280;56050;55.558;-4.644;2022-08-14T04:58:25;101097.78;;;18.05;65.09
64853;BME280;56050;55.558;-4.644;2022-08-14T05:00:52;101100.50;;;18.05;64.99
64853;BME280;56050;55.558;-4.644;2022-08-14T05:03:20;101098.63;;;18.02;65.04
64853;BME280;56050;55.558;-4.644;2022-08-14T05:05:54;101095.56;;;18.00;65.02
64853;BME280;56050;55.558;-4.644;2022-08-14T05:08:19;101094.47;;;17.97;65.00
64853;BME280;56050;55.558;-4.644;2022-08-14T05:10:50;101095.72;;;17.93;64.97
64853;BME280;56050;55.558;-4.644;2022-08-14T05:13:20;101102.78;;;17.90;65.11
64853;BME280;56050;55.558;-4.644;2022-08-14T05:15:45;101088.16;;;17.84;65.17
64853;BME280;56050;55.558;-4.644;2022-08-14T05:18:14;101093.34;;;17.79;65.33
64853;BME280;56050;55.558;-4.644;2022-08-14T05:20:41;101092.69;;;17.75;65.16
64853;BME280;56050;55.558;-4.644;2022-08-14T05:23:09;101088.06;;;17.72;65.50
64853;BME280;56050;55.558;-4.644;2022-08-14T05:25:35;101088.16;;;17.68;65.17
64853;BME280;56050;55.558;-4.644;2022-08-14T05:28:11;101084.00;;;17.64;65.41
64853;BME280;56050;55.558;-4.644;2022-08-14T05:30:38;101077.75;;;17.63;65.22
64853;BME280;56050;55.558;-4.644;2022-08-14T05:33:07;101078.19;;;17.62;65.34
64853;BME280;56050;55.558;-4.644;2022-08-14T05:35:33;101080.56;;;17.59;65.15
64853;BME280;56050;55.558;-4.644;2022-08-14T05:37:59;101081.78;;;17.58;65.48
64853;BME280;56050;55.558;-4.644;2022-08-14T05:40:25;101072.38;;;17.59;65.51
64853;BME280;56050;55.558;-4.644;2022-08-14T05:42:51;101080.56;;;17.59;65.27
64853;BME280;56050;55.558;-4.644;2022-08-14T05:45:16;101068.81;;;17.63;65.42
64853;BME280;56050;55.558;-4.644;2022-08-14T05:47:43;101072.66;;;17.65;65.33
64853;BME280;56050;55.558;-4.644;2022-08-14T05:50:13;101074.53;;;17.68;65.17
64853;BME280;56050;55.558;-4.644;2022-08-14T05:52:38;101083.06;;;17.70;65.13
64853;BME280;56050;55.558;-4.644;2022-08-14T05:55:09;101088.41;;;17.74;65.26
64853;BME280;56050;55.558;-4.644;2022-08-14T05:57:54;101085.78;;;17.70;65.36
64853;BME280;56050;55.558;-4.644;2022-08-14T06:00:22;101091.66;;;17.69;65.35
64853;BME280;56050;55.558;-4.644;2022-08-14T06:02:47;101084.31;;;17.66;65.55
64853;BME280;56050;55.558;-4.644;2022-08-14T06:05:13;101075.38;;;17.65;65.46
64853;BME280;56050;55.558;-4.644;2022-08-14T06:07:38;101072.56;;;17.69;65.56
64853;BME280;56050;55.558;-4.644;2022-08-14T06:10:05;101065.44;;;17.75;65.42
64853;BME280;56050;55.558;-4.644;2022-08-14T06:12:31;101059.78;;;17.82;65.40
64853;BME280;56050;55.558;-4.644;2022-08-14T06:14:57;101062.69;;;17.91;65.45
64853;BME280;56050;55.558;-4.644;2022-08-14T06:17:24;101056.97;;;18.01;65.54
64853;BME280;56050;55.558;-4.644;2022-08-14T06:19:49;101055.06;;;18.14;65.18
64853;BME280;56050;55.558;-4.644;2022-08-14T06:22:14;101066.03;;;18.27;65.21
64853;BME280;56050;55.558;-4.644;2022-08-14T06:24:40;101061.81;;;18.39;65.26
64853;BME280;56050;55.558;-4.644;2022-08-14T06:27:05;101060.84;;;18.45;65.26
64853;BME280;56050;55.558;-4.644;2022-08-14T06:29:31;101064.19;;;18.53;65.08
64853;BME280;56050;55.558;-4.644;2022-08-14T06:31:56;101062.81;;;18.61;65.07
64853;BME280;56050;55.558;-4.644;2022-08-14T06:34:22;101054.72;;;18.70;65.16
64853;BME280;56050;55.558;-4.644;2022-08-14T06:36:48;101046.13;;;18.84;65.01
64853;BME280;56050;55.558;-4.644;2022-08-14T06:39:13;101050.41;;;18.98;64.92
64853;BME280;56050;55.558;-4.644;2022-08-14T06:41:39;101050.00;;;19.12;64.56
64853;BME280;56050;55.558;-4.644;2022-08-14T06:44:07;101041.91;;;19.21;64.35
64853;BME280;56050;55.558;-4.644;2022-08-14T06:46:32;101027.28;;;19.27;64.51
64853;BME280;56050;55.558;-4.644;2022-08-14T06:48:57;101041.16;;;19.33;64.30
64853;BME280;56050;55.558;-4.644;2022-08-14T06:51:23;101034.94;;;19.45;64.38
64853;BME280;56050;55.558;-4.644;2022-08-14T06:53:48;101036.75;;;19.61;64.04
64853;BME280;56050;55.558;-4.644;2022-08-14T06:56:14;101042.09;;;19.77;63.89
64853;BME280;56050;55.558;-4.644;2022-08-14T06:58:39;101037.78;;;19.88;63.71
64853;BME280;56050;55.558;-4.644;2022-08-14T07:01:05;101028.91;;;19.97;63.55
64853;BME280;56050;55.558;-4.644;2022-08-14T07:03:49;101031.41;;;20.04;63.54
64853;BME280;56050;55.558;-4.644;2022-08-14T07:06:33;101023.53;;;20.06;63.34
64853;BME280;56050;55.558;-4.644;2022-08-14T07:08:58;101034.34;;;20.10;63.41
64853;BME280;56050;55.558;-4.644;2022-08-14T07:11:23;101029.66;;;20.10;63.36
64853;BME280;56050;55.558;-4.644;2022-08-14T07:13:49;101023.25;;;20.13;63.31
64853;BME280;56050;55.558;-4.644;2022-08-14T07:16:14;101028.94;;;20.19;63.20
64853;BME280;56050;55.558;-4.644;2022-08-14T07:18:39;101033.84;;;20.24;63.30
64853;BME280;56050;55.558;-4.644;2022-08-14T07:21:06;101029.22;;;20.33;63.47
64853;BME280;56050;55.558;-4.644;2022-08-14T07:23:32;101034.91;;;20.39;63.15
64853;BME280;56050;55.558;-4.644;2022-08-14T07:25:59;101037.50;;;20.42;62.99
64853;BME280;56050;55.558;-4.644;2022-08-14T07:28:32;101045.59;;;20.46;62.99
64853;BME280;56050;55.558;-4.644;2022-08-14T07:31:00;101032.09;;;20.52;62.69
64853;BME280;56050;55.558;-4.644;2022-08-14T07:33:29;101038.69;;;20.63;62.98
64853;BME280;56050;55.558;-4.644;2022-08-14T07:35:57;101024.19;;;20.75;62.47
64853;BME280;56050;55.558;-4.644;2022-08-14T07:38:24;101031.56;;;20.96;62.34
64853;BME280;56050;55.558;-4.644;2022-08-14T07:40:50;101030.94;;;21.14;62.08
64853;BME280;56050;55.558;-4.644;2022-08-14T07:43:16;101031.88;;;21.29;61.77
64853;BME280;56050;55.558;-4.644;2022-08-14T07:45:42;101026.91;;;21.37;61.52
64853;BME280;56050;55.558;-4.644;2022-08-14T07:48:09;101013.38;;;21.42;61.07
64853;BME280;56050;55.558;-4.644;2022-08-14T07:50:35;101009.25;;;21.47;61.00
64853;BME280;56050;55.558;-4.644;2022-08-14T07:53:01;101010.03;;;21.56;61.04
64853;BME280;56050;55.558;-4.644;2022-08-14T07:55:27;101005.47;;;21.72;60.75
64853;BME280;56050;55.558;-4.644;2022-08-14T07:57:53;101000.78;;;21.81;60.55
64853;BME280;56050;55.558;-4.644;2022-08-14T08:00:23;100999.53;;;21.82;60.10
64853;BME280;56050;55.558;-4.644;2022-08-14T08:02:51;100996.50;;;21.80;59.95
64853;BME280;56050;55.558;-4.644;2022-08-14T08:05:19;100993.75;;;21.80;60.35
64853;BME280;56050;55.558;-4.644;2022-08-14T08:07:46;100985.88;;;21.91;59.97
64853;BME280;56050;55.558;-4.644;2022-08-14T08:10:14;100986.78;;;21.97;59.78
64853;BME280;56050;55.558;-4.644;2022-08-14T08:13:02;100982.22;;;22.03;59.96
64853;BME280;56050;55.558;-4.644;2022-08-14T08:15:36;100995.91;;;22.21;59.85
64853;BME280;56050;55.558;-4.644;2022-08-14T08:18:03;100994.53;;;22.35;59.53
64853;BME280;56050;55.558;-4.644;2022-08-14T08:20:31;100991.63;;;22.48;59.55
64853;BME280;56050;55.558;-4.644;2022-08-14T08:22:59;100977.84;;;22.66;59.25
64853;BME280;56050;55.558;-4.644;2022-08-14T08:25:27;100982.34;;;22.87;58.98
64853;BME280;56050;55.558;-4.644;2022-08-14T08:28:07;100979.34;;;23.09;58.61
64853;BME280;56050;55.558;-4.644;2022-08-14T08:30:36;100971.00;;;23.27;58.43
64853;BME280;56050;55.558;-4.644;2022-08-14T08:33:05;100969.31;;;23.29;57.69
64853;BME280;56050;55.558;-4.644;2022-08-14T08:35:33;100964.91;;;23.23;57.55
64853;BME280;56050;55.558;-4.644;2022-08-14T08:38:10;100957.94;;;23.13;57.51
64853;BME280;56050;55.558;-4.644;2022-08-14T08:40:41;100961.91;;;23.12;57.68
64853;BME280;56050;55.558;-4.644;2022-08-14T08:43:16;100953.16;;;23.22;57.99
64853;BME280;56050;55.558;-4.644;2022-08-14T08:45:42;100952.78;;;23.38;57.78
64853;BME280;56050;55.558;-4.644;2022-08-14T08:48:08;100959.75;;;23.49;57.56
64853;BME280;56050;55.558;-4.644;2022-08-14T08:50:37;100952.09;;;23.53;57.31
64853;BME280;56050;55.558;-4.644;2022-08-14T08:53:08;100947.25;;;23.62;57.42
64853;BME280;56050;55.558;-4.644;2022-08-14T08:55:36;100955.44;;;23.71;57.06
64853;BME280;56050;55.558;-4.644;2022-08-14T08:58:14;100958.59;;;23.79;57.20
64853;BME280;56050;55.558;-4.644;2022-08-14T09:00:44;100953.19;;;23.84;56.99
64853;BME280;56050;55.558;-4.644;2022-08-14T09:03:12;100951.88;;;23.80;56.14
64853;BME280;56050;55.558;-4.644;2022-08-14T09:05:54;100958.09;;;23.66;56.71
64853;BME280;56050;55.558;-4.644;2022-08-14T09:08:25;100951.72;;;23.60;56.60
64853;BME280;56050;55.558;-4.644;2022-08-14T09:10:52;100947.84;;;23.66;56.97
64853;BME280;56050;55.558;-4.644;2022-08-14T09:13:20;100952.22;;;23.73;56.37
64853;BME280;56050;55.558;-4.644;2022-08-14T09:15:48;100947.97;;;23.72;56.47
64853;BME280;56050;55.558;-4.644;2022-08-14T09:18:16;100945.22;;;23.72;56.43
64853;BME280;56050;55.558;-4.644;2022-08-14T09:20:46;100944.28;;;23.75;56.29
64853;BME280;56050;55.558;-4.644;2022-08-14T09:23:13;100949.56;;;23.78;55.83
64853;BME280;56050;55.558;-4.644;2022-08-14T09:25:41;100950.72;;;23.72;55.96
64853;BME280;56050;55.558;-4.644;2022-08-14T09:28:07;100950.19;;;23.59;56.06
64853;BME280;56050;55.558;-4.644;2022-08-14T09:30:38;100945.53;;;23.50;56.41
64853;BME280;56050;55.558;-4.644;2022-08-14T09:38:53;100945.91;;;23.34;56.68
64853;BME280;56050;55.558;-4.644;2022-08-14T09:44:51;100944.47;;;23.48;56.35
64853;BME280;56050;55.558;-4.644;2022-08-14T09:47:12;100945.94;;;23.58;56.43
64853;BME280;56050;55.558;-4.644;2022-08-14T09:49:39;100937.13;;;23.68;56.21
64853;BME280;56050;55.558;-4.644;2022-08-14T09:52:10;100933.06;;;23.78;55.90
64853;BME280;56050;55.558;-4.644;2022-08-14T09:54:39;100925.78;;;23.90;55.90
64853;BME280;56050;55.558;-4.644;2022-08-14T09:57:05;100938.50;;;24.02;55.63
64853;BME280;56050;55.558;-4.644;2022-08-14T09:59:45;100928.69;;;24.10;55.59
64853;BME280;56050;55.558;-4.644;2022-08-14T10:02:24;100931.03;;;24.17;55.22
64853;BME280;56050;55.558;-4.644;2022-08-14T10:05:08;100923.06;;;24.19;54.97
64853;BME280;56050;55.558;-4.644;2022-08-14T10:07:49;100920.78;;;24.18;55.13
64853;BME280;56050;55.558;-4.644;2022-08-14T10:10:46;100921.06;;;24.20;55.19
64853;BME280;56050;55.558;-4.644;2022-08-14T10:13:23;100908.75;;;24.30;55.20
64853;BME280;56050;55.558;-4.644;2022-08-14T10:15:49;100910.41;;;24.42;55.05
64853;BME280;56050;55.558;-4.644;2022-08-14T10:18:17;100910.50;;;24.47;54.64
64853;BME280;56050;55.558;-4.644;2022-08-14T10:21:03;100907.75;;;24.47;54.80
64853;BME280;56050;55.558;-4.644;2022-08-14T10:23:42;100897.59;;;24.53;54.66
64853;BME280;56050;55.558;-4.644;2022-08-14T10:26:09;100897.47;;;24.63;54.64
64853;BME280;56050;55.558;-4.644;2022-08-14T10:28:41;100896.19;;;24.78;54.46
64853;BME280;56050;55.558;-4.644;2022-08-14T10:31:20;100897.69;;;24.94;54.21
64853;BME280;56050;55.558;-4.644;2022-08-14T10:34:19;100886.13;;;25.10;54.00
64853;BME280;56050;55.558;-4.644;2022-08-14T10:36:45;100892.53;;;25.22;53.73
64853;BME280;56050;55.558;-4.644;2022-08-14T10:39:20;100888.09;;;25.30;53.45
64853;BME280;56050;55.558;-4.644;2022-08-14T10:41:47;100878.41;;;25.34;53.35
64853;BME280;56050;55.558;-4.644;2022-08-14T10:44:15;100871.22;;;25.42;53.50
64853;BME280;56050;55.558;-4.644;2022-08-14T10:46:45;100876.69;;;25.57;53.21
64853;BME280;56050;55.558;-4.644;2022-08-14T10:49:23;100883.00;;;25.63;53.11
64853;BME280;56050;55.558;-4.644;2022-08-14T10:54:45;100869.84;;;25.78;52.75
64853;BME280;56050;55.558;-4.644;2022-08-14T10:57:22;100864.22;;;25.93;52.77
64853;BME280;56050;55.558;-4.644;2022-08-14T10:59:56;100866.13;;;26.07;52.44
64853;BME280;56050;55.558;-4.644;2022-08-14T11:02:34;100865.22;;;26.21;52.02
64853;BME280;56050;55.558;-4.644;2022-08-14T11:07:36;100863.31;;;26.33;51.20
64853;BME280;56050;55.558;-4.644;2022-08-14T11:12:44;100855.69;;;26.22;51.46
64853;BME280;56050;55.558;-4.644;2022-08-14T11:15:17;100853.88;;;26.13;51.47
64853;BME280;56050;55.558;-4.644;2022-08-14T11:17:43;100845.72;;;26.04;51.16
64853;BME280;56050;55.558;-4.644;2022-08-14T11:20:12;100857.22;;;25.97;51.08
64853;BME280;56050;55.558;-4.644;2022-08-14T11:22:39;100850.44;;;25.93;51.43
64853;BME280;56050;55.558;-4.644;2022-08-14T11:25:17;100846.25;;;25.77;51.24
64853;BME280;56050;55.558;-4.644;2022-08-14T11:27:45;100845.34;;;25.60;51.35
64853;BME280;56050;55.558;-4.644;2022-08-14T11:30:17;100847.63;;;25.41;51.73
64853;BME280;56050;55.558;-4.644;2022-08-14T11:32:46;100849.22;;;25.28;51.74
64853;BME280;56050;55.558;-4.644;2022-08-14T11:35:19;100844.84;;;25.16;51.99
64853;BME280;56050;55.558;-4.644;2022-08-14T11:37:55;100843.19;;;25.03;51.94
64853;BME280;56050;55.558;-4.644;2022-08-14T11:40:26;100848.81;;;24.94;52.03
64853;BME280;56050;55.558;-4.644;2022-08-14T11:42:53;100842.69;;;24.85;52.03
64853;BME280;56050;55.558;-4.644;2022-08-14T11:45:25;100857.81;;;24.75;52.02
64853;BME280;56050;55.558;-4.644;2022-08-14T11:47:51;100839.88;;;24.65;51.87
64853;BME280;56050;55.558;-4.644;2022-08-14T11:50:27;100832.91;;;24.49;51.76
64853;BME280;56050;55.558;-4.644;2022-08-14T11:52:55;100844.72;;;24.35;52.07
64853;BME280;56050;55.558;-4.644;2022-08-14T11:55:23;100837.69;;;24.19;51.98
64853;BME280;56050;55.558;-4.644;2022-08-14T11:57:59;100837.91;;;24.01;52.31
64853;BME280;56050;55.558;-4.644;2022-08-14T12:00:26;100834.41;;;23.86;52.47
64853;BME280;56050;55.558;-4.644;2022-08-14T12:02:54;100834.66;;;23.73;52.85
64853;BME280;56050;55.558;-4.644;2022-08-14T12:05:34;100829.84;;;23.68;52.84
64853;BME280;56050;55.558;-4.644;2022-08-14T12:08:02;100835.53;;;23.65;52.92
64853;BME280;56050;55.558;-4.644;2022-08-14T12:10:32;100823.19;;;23.60;52.92
64853;BME280;56050;55.558;-4.644;2022-08-14T12:13:12;100817.19;;;23.62;53.15
64853;BME280;56050;55.558;-4.644;2022-08-14T12:15:39;100813.50;;;23.65;53.06
64853;BME280;56050;55.558;-4.644;2022-08-14T12:18:06;100811.81;;;23.67;52.94
64853;BME280;56050;55.558;-4.644;2022-08-14T12:20:35;100816.34;;;23.70;52.90
64853;BME280;56050;55.558;-4.644;2022-08-14T12:23:06;100812.38;;;23.71;52.97
64853;BME280;56050;55.558;-4.644;2022-08-14T12:25:33;100805.19;;;23.74;53.15
64853;BME280;56050;55.558;-4.644;2022-08-14T12:28:01;100809.72;;;23.77;53.48
64853;BME280;56050;55.558;-4.644;2022-08-14T12:30:35;100808.78;;;23.80;53.58
64853;BME280;56050;55.558;-4.644;2022-08-14T12:33:03;100803.56;;;23.82;53.76
64853;BME280;56050;55.558;-4.644;2022-08-14T12:35:42;100806.78;;;23.80;54.02
64853;BME280;56050;55.558;-4.644;2022-08-14T12:38:10;100806.03;;;23.80;54.20
64853;BME280;56050;55.558;-4.644;2022-08-14T12:40:47;100807.25;;;23.79;54.36
64853;BME280;56050;55.558;-4.644;2022-08-14T12:43:14;100804.78;;;23.81;54.80
64853;BME280;56050;55.558;-4.644;2022-08-14T12:45:46;100797.19;;;23.90;54.94
64853;BME280;56050;55.558;-4.644;2022-08-14T12:48:15;100796.88;;;24.03;54.50
64853;BME280;56050;55.558;-4.644;2022-08-14T12:50:42;100800.06;;;24.11;54.58
64853;BME280;56050;55.558;-4.644;2022-08-14T12:53:09;100807.63;;;24.16;54.48
64853;BME280;56050;55.558;-4.644;2022-08-14T12:55:40;100796.91;;;24.18;54.50
64853;BME280;56050;55.558;-4.644;2022-08-14T12:58:06;100798.69;;;24.21;54.00
64853;BME280;56050;55.558;-4.644;2022-08-14T13:00:36;100791.66;;;24.20;54.13
64853;BME280;56050;55.558;-4.644;2022-08-14T13:03:03;100795.66;;;24.19;53.94
64853;BME280;56050;55.558;-4.644;2022-08-14T13:05:33;100796.63;;;24.16;54.26
64853;BME280;56050;55.558;-4.644;2022-08-14T13:08:02;100793.38;;;24.17;54.29